Impacts METAR Board
IDs:

KVRB - Vero Beach Muni, FL, US

Updated at: 0200 UTC 12 May 2021
Potential Impact None Slight Moderate High
Time 11/14Z 11/15Z 11/16Z 11/17Z 11/18Z 11/19Z 11/20Z 11/21Z 11/22Z 11/23Z 12/00Z 12/01Z 12/02Z
Temp84 87 87 88 86 87 86 88 84 82 80 79 79
Dewpt71 71 69 68 69 71 73 73 71 72 72 73 74
Altim30.11 30.12 30.11 30.09 30.07 30.06 30.04 30.03 30.03 30.03 30.04 30.05 30.06
VIS10 10 10 10 10 10 10 10 10 10 10 10 10
CIG-- -- 45 -- -- -- -- -- -- -- -- -- --
CoverCLRFEWBKNCLRCLRSCTCLRSCTCLRCLRCLRCLRCLR
FltCatVFRVFRVFRVFRVFRVFRVFRVFRVFRVFRVFRVFRVFR
WX--------------------------
WDir0090120100110110130120100110100120
WSpd0 5 8 11 9 8 11 11 10 7 7 6 8
WGst-- -- -- -- -- -- -- 18 -- -- -- -- --
Raw hourly METARs
KVRB 111353Z 00000KT 10SM CLR 29/22 A3011 RMK AO2 SLP195 T02890217
KVRB 111453Z VRB05KT 10SM FEW032 31/22 A3012 RMK AO2 SLP197 T03060217 51006
KVRB 111553Z 09008KT 10SM SCT038 BKN045 BKN060 31/21 A3011 RMK AO2 SLP194 T03060206
KVRB 111653Z 12011KT 10SM CLR 31/20 A3009 RMK AO2 SLP189 T03110200
KVRB 111753Z 10009KT 10SM CLR 30/21 A3007 RMK AO2 SLP182 T03000206 10317 20239 58015
KVRB 111853Z 11008KT 10SM SCT110 31/22 A3006 RMK AO2 SLP176 T03060217
KVRB 111953Z 11011KT 10SM CLR 30/23 A3004 RMK AO2 LTG DSNT S SLP170 T03000228
KVRB 112053Z 13011G18KT 10SM SCT032 31/23 A3003 RMK AO2 SLP169 T03110228 56013
KVRB 112153Z 12010KT 10SM CLR 29/22 A3003 RMK AO2 SLP166 T02890217
KVRB 112253Z 10007KT 10SM CLR 28/22 A3003 RMK AO2 SLP167 T02780222
KVRB 112353Z 11007KT 10SM CLR 27/22 A3004 RMK AO2 SLP173 T02670222 10311 20267 53004
KVRB 120053Z 10006KT 10SM CLR 26/23 A3005 RMK AO2 SLP176 T02610228
KVRB 120153Z AUTO 12008KT 10SM CLR 26/23 A3006 RMK AO2 SLP179 T02610233



Page loaded:  02:15 UTC  |   07:15 PM Pacific  |   08:15 PM Mountain  |   09:15 PM Central  |   10:15 PM Eastern

 

ADVISORIES

FORECASTS

FORECASTS

OBSERVATIONS

USER TOOLS

ABOUT US